Аэропорт: Толмачёво. Новосибирск

ICAO: UNNT

METAR:
2019/05/26 14:00
UNNT 261400Z 29004MPS CAVOK 08/M04 Q1024 R25/090070 R16/090070 NOSIG RMK QFE758/1010
METAR:
2019/05/26 12:21
TAF UNNT 261100Z 2612/2712 28009G15MPS 9999 BKN040CB 
      TEMPO 2612/2615 -SHRA BKN011CB 
      BECMG 2616/2618 21003G08MPS NSC 
      BECMG 2702/2703 26006G11MPS